Terminal Aerodrome Forecast
Issued by NWS Shreveport, LA

Home | Current Version | Previous Version | Text Only | Print | Product List | Glossary On
Versions: 1 2 3 4 5 6 7 8 9 10 11 12 13
287
FTUS44 KSHV 281720
TAFTYR
TAF
KTYR 281720Z 2818/2918 21007KT P6SM VCTS SCT050CB OVC120
     FM290200 18005KT P6SM FEW050 BKN250
     FM291500 22010KT P6SM FEW250=

USA.gov is the U.S. government's official web portal to all federal, state and local government web resources and services.